Colwich, Kansas
Current Conditions -  °F | °C
As of 11:53 AM on Wednesday 28 Jan 2015 (Local Time) from KICT Reporting Station
Broken Clouds Broken Clouds  
Wind Chill: 68°   Ceiling: 20000
Heat Index: 68°   Visibility: 10mi
Dew Point: 38°   Wind: 20mph
Humidity: 33%   Direction: 230°SW
Pressure: 29.85"   Gusts: NA
Location:  37.78°N, 97.54°W
Report Text: KICT 281753Z 23017KT 10SM BKN200 BKN250 20/03 A2985 RMK AO2 SLP103 T02000033 10200 20033 56015
Loading
Personal Weather Stations






























Interactive Weather Map New forecast layout! Learn more

10-Day Weather Forecast

Advertisements
Track Severe Weather on mobile